This is the latest recevied weather packets stored in our database for station/object LRTZ. If no packets are shown the sender has not sent any weather packets the latest 10 day(s).
| Time | Temp. | Humidity | Pressure | Rain* | Wind** | Luminosity | Snow |
|---|---|---|---|---|---|---|---|
| 1777942139 | 5° C | 87% | 1015 hPa | - | - | - | - |
| 1777941242 | 6.11° C | 81% | 1016 hPa | - | - | - | - |
| 1777940340 | 6.11° C | 81% | 1016 hPa | - | - | - | - |
| 1777939443 | 6.11° C | 81% | 1016 hPa | - | - | - | - |
| 1777938540 | 6.11° C | 81% | 1016 hPa | - | - | - | - |
| 1777937639 | 6.11° C | 81% | 1016 hPa | - | - | - | - |
| 1777936740 | 6.11° C | 81% | 1016 hPa | - | - | - | - |
| 1777935840 | 6.11° C | 81% | 1016 hPa | - | - | - | - |
| 1777931339 | 7.22° C | 71% | 1015 hPa | - | - | - | - |
| 1777930458 | 7.22° C | 71% | 1015 hPa | - | - | - | - |
| 1777929542 | 7.22° C | 71% | 1015 hPa | - | - | - | - |
| 1777928642 | 7.22° C | 71% | 1015 hPa | - | - | - | - |
| 1777927739 | 7.78° C | 66% | 1015 hPa | - | - | - | - |
| 1777926844 | 7.78° C | 66% | 1015 hPa | - | - | - | - |
| 1777925939 | 7.78° C | 66% | 1015 hPa | - | - | - | - |
| 1777925043 | 7.78° C | 66% | 1015 hPa | - | - | - | - |
| 1777924143 | 7.22° C | 76% | 1015 hPa | - | - | - | - |
| 1777923243 | 7.22° C | 76% | 1015 hPa | - | - | - | - |
| 1777922342 | 7.22° C | 76% | 1015 hPa | - | - | - | - |
| 1777921443 | 7.22° C | 76% | 1015 hPa | - | - | - | - |
| 1777916943 | 13.89° C | 48% | 1015 hPa | - | - | - | - |
| 1777916043 | 13.89° C | 48% | 1015 hPa | - | - | - | - |
| 1777915142 | 13.89° C | 48% | 1015 hPa | - | - | - | - |
| 1777914242 | 13.89° C | 48% | 1015 hPa | - | - | - | - |
| 1777913343 | 15° C | 45% | 1015 hPa | - | - | - | - |
* Rain since midnight (hover to see other rain measurements)
** Current wind speed in m/s (hover to see current wind gust speed)